Time;durP1;ratioP1;P1;durP2;ratioP2;P2;SDS_P1;SDS_P2;PMS_P1;PMS_P2;Temp;Humidity;BMP_temperature;BMP_pressure;BME280_temperature;BME280_humidity;BME280_pressure;Samples;Min_cycle;Max_cycle;Signal;HPM_P1;HPM_P2
2022/01/13 00:02:28;;;;;;;47.63;25.83;;;3.10;99.90;;;;;;4957085;28;20239;-76
2022/01/13 00:04:54;;;;;;;44.88;25.25;;;3.10;99.90;;;;;;4957121;28;20710;-76
2022/01/13 00:07:19;;;;;;;46.57;25.90;;;3.10;99.90;;;;;;4957454;29;20212;-76
2022/01/13 00:09:45;;;;;;;54.63;27.93;;;2.90;99.90;;;;;;4957328;29;20244;-76
2022/01/13 00:12:12;;;;;;;45.63;25.00;;;2.90;99.90;;;;;;4955550;28;20232;-76
2022/01/13 00:14:51;;;;;;;40.17;24.65;;;2.90;99.90;;;;;;4957322;29;20204;-76
2022/01/13 00:19:57;;;;;;;42.80;26.10;;;2.90;99.90;;;;;;4957198;29;20189;-76
2022/01/13 00:22:44;;;;;;;42.25;24.27;;;2.90;99.90;;;;;;4956655;28;20197;-76
2022/01/13 00:25:13;;;;;;;51.53;26.38;;;3.00;99.90;;;;;;4957236;28;20236;-75
2022/01/13 00:27:43;;;;;;;44.47;25.98;;;3.00;99.90;;;;;;4957108;29;20178;-76
2022/01/13 00:30:15;;;;;;;45.70;24.98;;;3.00;99.90;;;;;;4957175;29;20211;-76
2022/01/13 00:32:40;;;;;;;42.60;24.90;;;3.00;99.90;;;;;;4956569;28;20578;-76
2022/01/13 00:35:07;;;;;;;42.23;23.47;;;3.00;99.90;;;;;;4955909;29;20180;-76
2022/01/13 00:37:34;;;;;;;44.60;25.98;;;3.00;99.90;;;;;;4955776;29;20194;-76
2022/01/13 00:39:59;;;;;;;38.15;22.85;;;2.90;99.90;;;;;;4957041;29;20178;-76
2022/01/13 00:42:25;;;;;;;41.97;23.77;;;2.90;99.90;;;;;;4956249;28;20206;-76
2022/01/13 00:44:51;;;;;;;40.00;22.93;;;3.00;99.90;;;;;;4956878;29;20189;-76
2022/01/13 00:47:16;;;;;;;45.50;26.73;;;3.10;99.90;;;;;;4956703;29;20189;-76
2022/01/13 00:49:42;;;;;;;43.67;25.00;;;3.10;99.90;;;;;;4956579;29;20210;-76
2022/01/13 00:52:07;;;;;;;52.77;25.97;;;3.10;99.90;;;;;;4956270;28;20208;-76
2022/01/13 00:54:34;;;;;;;44.57;25.47;;;3.10;99.90;;;;;;4956374;29;20200;-76
2022/01/13 00:57:00;;;;;;;44.75;25.30;;;3.10;99.90;;;;;;4956584;29;20257;-76
2022/01/13 00:59:26;;;;;;;43.42;25.10;;;3.10;99.90;;;;;;4956524;29;20184;-75
2022/01/13 01:01:54;;;;;;;50.33;24.02;;;3.00;99.90;;;;;;4956085;28;20205;-76
2022/01/13 01:04:20;;;;;;;40.88;24.35;;;3.00;99.90;;;;;;4956511;29;20188;-76
2022/01/13 01:06:46;;;;;;;47.35;26.33;;;2.90;99.90;;;;;;4955139;29;20288;-76
2022/01/13 01:09:21;;;;;;;47.60;26.10;;;2.80;99.90;;;;;;4956320;29;20690;-76
2022/01/13 01:11:49;;;;;;;46.92;23.65;;;2.80;99.90;;;;;;4954729;28;20219;-76
2022/01/13 01:14:16;;;;;;;50.58;25.35;;;2.80;99.90;;;;;;4956300;29;20179;-76
2022/01/13 01:16:43;;;;;;;43.20;24.50;;;2.90;99.90;;;;;;4955135;28;20589;-76
2022/01/13 01:19:11;;;;;;;40.05;24.40;;;2.90;99.90;;;;;;4956089;29;20565;-76
2022/01/13 01:22:02;;;;;;;45.83;25.23;;;2.80;99.90;;;;;;4955688;28;20249;-76
2022/01/13 01:27:00;;;;;;;45.40;22.40;;;2.70;99.90;;;;;;4955847;29;20560;-76
2022/01/13 01:29:31;;;;;;;41.58;23.30;;;2.80;99.90;;;;;;4955974;29;20542;-76
2022/01/13 01:31:58;;;;;;;43.22;23.23;;;2.80;99.90;;;;;;4955677;28;20209;-76
2022/01/13 01:36:55;;;;;;;43.03;23.25;;;2.80;99.90;;;;;;4955778;29;20174;-76
2022/01/13 01:39:21;;;;;;;43.45;24.38;;;2.80;99.90;;;;;;4955798;29;20206;-76
2022/01/13 01:41:56;;;;;;;38.33;21.90;;;2.80;99.90;;;;;;4955292;28;20208;-75
2022/01/13 01:44:32;;;;;;;39.83;22.70;;;2.70;99.90;;;;;;4956048;29;20416;-74
2022/01/13 01:47:00;;;;;;;39.83;23.67;;;2.70;99.90;;;;;;4954555;29;20714;-75
2022/01/13 01:49:27;;;;;;;40.95;23.02;;;2.60;99.90;;;;;;4955802;29;20232;-75
2022/01/13 01:51:55;;;;;;;40.03;23.63;;;2.60;99.90;;;;;;4955385;28;20248;-75
2022/01/13 01:54:21;;;;;;;34.50;20.52;;;2.60;99.90;;;;;;4970421;28;20174;-75
2022/01/13 01:56:47;;;;;;;42.65;21.38;;;2.60;99.90;;;;;;4955523;29;20188;-75
2022/01/13 01:59:16;;;;;;;41.63;23.70;;;2.60;99.90;;;;;;4955540;29;20180;-75
2022/01/13 02:01:44;;;;;;;47.38;22.25;;;2.60;99.90;;;;;;4955086;28;20201;-75
2022/01/13 02:04:10;;;;;;;40.03;22.65;;;2.70;99.90;;;;;;4955544;29;20275;-75
2022/01/13 02:06:37;;;;;;;40.05;22.00;;;2.70;99.90;;;;;;4955339;29;20577;-75
2022/01/13 02:09:05;;;;;;;41.45;23.08;;;2.70;99.90;;;;;;4955203;29;20247;-75
2022/01/13 02:11:41;;;;;;;42.72;23.70;;;2.70;99.90;;;;;;4954806;28;20193;-75
2022/01/13 02:14:21;;;;;;;38.90;22.35;;;2.60;99.90;;;;;;4955597;29;20646;-75
2022/01/13 02:16:50;;;;;;;42.78;23.73;;;2.70;99.90;;;;;;4955287;29;20276;-75
2022/01/13 02:19:17;;;;;;;50.30;23.75;;;2.70;99.90;;;;;;4955025;29;20235;-75
2022/01/13 02:21:42;;;;;;;41.50;23.80;;;2.70;99.90;;;;;;4953524;28;20205;-75
2022/01/13 02:24:08;;;;;;;40.63;23.97;;;2.70;99.90;;;;;;4955153;29;20185;-75
2022/01/13 02:26:33;;;;;;;50.87;24.03;;;2.70;99.90;;;;;;4954965;28;20274;-75
2022/01/13 02:28:59;;;;;;;38.00;21.90;;;2.70;99.90;;;;;;4954909;29;20213;-76
2022/01/13 02:31:26;;;;;;;43.40;22.77;;;2.60;99.90;;;;;;4954616;28;20205;-75
2022/01/13 02:33:53;;;;;;;35.28;21.45;;;2.60;99.90;;;;;;4955050;29;20469;-75
2022/01/13 02:36:20;;;;;;;47.95;24.08;;;2.50;99.90;;;;;;4955078;29;20185;-75
2022/01/13 02:38:53;;;;;;;41.47;24.58;;;2.60;99.90;;;;;;4955154;29;20296;-75
2022/01/13 02:41:19;;;;;;;42.72;24.00;;;2.50;99.90;;;;;;4954489;28;20193;-75
2022/01/13 02:43:46;;;;;;;42.25;22.85;;;2.40;99.90;;;;;;4954980;29;20574;-75
2022/01/13 02:49:13;;;;;;;36.97;21.73;;;2.30;99.90;;;;;;4954389;29;20308;-74
2022/01/13 02:51:42;;;;;;;44.90;23.27;;;2.30;99.90;;;;;;4954435;28;20224;-75
2022/01/13 02:54:08;;;;;;;39.60;22.73;;;2.20;99.90;;;;;;4954933;29;20206;-74
2022/01/13 02:56:34;;;;;;;41.85;23.33;;;2.10;99.90;;;;;;4953687;29;20189;-75
2022/01/13 02:59:00;;;;;;;45.67;23.50;;;2.10;99.90;;;;;;4955012;29;20573;-75
2022/01/13 03:01:26;;;;;;;36.15;21.77;;;2.20;99.90;;;;;;4954281;28;20569;-77
2022/01/13 03:03:52;;;;;;;36.43;23.07;;;2.10;99.90;;;;;;4953638;29;20275;-77
2022/01/13 03:06:24;;;;;;;42.72;23.23;;;2.10;99.90;;;;;;4954804;29;20179;-75
2022/01/13 03:08:51;;;;;;;42.70;22.92;;;2.00;99.90;;;;;;4953629;29;20277;-76
2022/01/13 03:11:17;;;;;;;43.90;26.35;;;2.00;99.90;;;;;;4954311;28;20575;-77
2022/01/13 03:13:43;;;;;;;44.72;24.75;;;2.00;99.90;;;;;;4954523;29;20231;-77
2022/01/13 03:16:11;;;;;;;52.93;27.20;;;1.90;99.90;;;;;;4954754;29;20202;-77
2022/01/13 03:18:38;;;;;;;45.28;23.90;;;1.90;99.90;;;;;;4954604;29;20173;-77
2022/01/13 03:21:05;;;;;;;53.42;25.40;;;1.90;99.90;;;;;;4954296;28;20188;-76
2022/01/13 03:23:31;;;;;;;57.45;26.90;;;1.90;99.90;;;;;;4954471;29;20209;-76
2022/01/13 03:25:57;;;;;;;51.05;26.15;;;1.70;99.90;;;;;;4954476;29;20173;-76
2022/01/13 03:28:31;;;;;;;57.90;26.30;;;1.60;99.90;;;;;;4954549;29;20229;-76
2022/01/13 03:31:02;;;;;;;59.75;25.80;;;1.60;99.90;;;;;;4954267;28;20179;-76
2022/01/13 03:33:28;;;;;;;47.75;23.60;;;1.50;99.90;;;;;;4954739;28;20280;-76
2022/01/13 03:35:54;;;;;;;60.60;26.15;;;1.50;99.90;;;;;;4954358;29;20184;-76
2022/01/13 03:38:20;;;;;;;61.97;26.33;;;1.50;99.90;;;;;;4954526;28;20235;-76
2022/01/13 03:40:46;;;;;;;68.40;28.90;;;1.40;99.90;;;;;;4957625;29;20176;-76
2022/01/13 03:43:14;;;;;;;59.27;27.60;;;1.40;99.90;;;;;;4956683;28;20201;-76
2022/01/13 03:45:39;;;;;;;60.28;27.40;;;1.30;99.90;;;;;;4957779;29;20181;-76
2022/01/13 03:48:07;;;;;;;59.77;27.50;;;1.30;99.90;;;;;;4957805;29;20268;-76
2022/01/13 03:50:33;;;;;;;58.22;27.70;;;1.30;99.90;;;;;;4957870;29;20215;-76
2022/01/13 03:53:01;;;;;;;66.57;27.60;;;1.20;99.90;;;;;;4957521;28;20221;-76
2022/01/13 03:55:36;;;;;;;59.90;25.92;;;1.20;99.90;;;;;;4957828;29;20203;-76
2022/01/13 03:58:20;;;;;;;62.70;27.33;;;1.20;99.90;;;;;;4957730;29;20190;-76
2022/01/13 04:01:11;;;;;;;62.92;28.23;;;1.20;99.90;;;;;;4956210;29;20186;-76
2022/01/13 04:03:37;;;;;;;59.25;27.17;;;1.30;99.90;;;;;;4957542;29;20227;-76
2022/01/13 04:06:03;;;;;;;63.72;27.77;;;1.30;99.90;;;;;;4957410;29;20182;-76
2022/01/13 04:08:29;;;;;;;78.13;30.20;;;1.30;99.90;;;;;;4957490;29;20657;-76
2022/01/13 04:10:57;;;;;;;74.57;29.48;;;1.30;99.90;;;;;;4957000;28;20461;-76
2022/01/13 04:13:43;;;;;;;61.70;27.20;;;1.30;99.90;;;;;;4957259;29;20563;-76
2022/01/13 04:16:09;;;;;;;63.45;27.90;;;1.20;99.90;;;;;;4957091;29;20218;-76
2022/01/13 04:18:34;;;;;;;59.72;27.92;;;1.10;99.90;;;;;;4957201;29;20189;-76
2022/01/13 04:21:01;;;;;;;57.07;27.10;;;1.20;99.90;;;;;;4955551;28;20663;-76
2022/01/13 04:23:26;;;;;;;64.60;25.75;;;1.20;99.90;;;;;;4957208;29;20186;-76
2022/01/13 04:25:52;;;;;;;65.83;28.87;;;1.20;99.90;;;;;;4957147;29;20182;-76
2022/01/13 04:28:25;;;;;;;67.00;30.70;;;1.10;99.90;;;;;;4955816;29;20257;-76
2022/01/13 04:30:53;;;;;;;60.40;27.00;;;1.00;99.90;;;;;;4956625;28;20219;-76
2022/01/13 04:33:19;;;;;;;51.35;25.30;;;1.10;99.90;;;;;;4957210;29;20298;-76
2022/01/13 04:35:45;;;;;;;52.55;26.23;;;1.10;99.90;;;;;;4956987;29;20174;-76
2022/01/13 04:38:11;;;;;;;57.63;26.52;;;1.10;99.90;;;;;;4955719;29;20207;-76
2022/01/13 04:40:44;;;;;;;56.80;27.63;;;1.10;99.90;;;;;;4956865;29;20680;-76
2022/01/13 04:43:10;;;;;;;47.38;24.73;;;1.00;99.90;;;;;;4956995;28;20246;-76
2022/01/13 04:45:36;;;;;;;53.10;22.40;;;1.00;99.90;;;;;;4956987;29;20205;-76
2022/01/13 04:48:02;;;;;;;52.00;23.90;;;1.00;99.90;;;;;;4956924;29;20216;-76
2022/01/13 04:50:28;;;;;;;47.90;22.60;;;0.90;99.90;;;;;;4956626;28;20205;-76
2022/01/13 04:52:54;;;;;;;47.95;21.25;;;0.90;99.90;;;;;;4956308;28;20237;-76
2022/01/13 04:55:29;;;;;;;41.23;22.70;;;1.10;99.90;;;;;;4956711;29;20658;-76
2022/01/13 04:57:55;;;;;;;41.65;21.55;;;1.10;99.90;;;;;;4956793;29;20422;-76
2022/01/13 05:00:22;;;;;;;40.83;19.73;;;1.00;99.90;;;;;;4956502;29;20176;-76
2022/01/13 05:02:48;;;;;;;43.00;20.85;;;0.90;99.90;;;;;;4956048;28;20283;-76
2022/01/13 05:05:14;;;;;;;39.35;20.58;;;0.70;99.90;;;;;;4956673;28;20221;-76
2022/01/13 05:07:40;;;;;;;42.20;20.00;;;0.60;99.90;;;;;;4956442;29;20221;-76
2022/01/13 05:10:07;;;;;;;46.80;20.17;;;0.70;99.90;;;;;;4956478;29;20684;-76
2022/01/13 05:12:36;;;;;;;51.58;21.25;;;0.60;99.90;;;;;;4955700;28;20485;-76
2022/01/13 05:15:04;;;;;;;53.22;23.55;;;0.70;99.90;;;;;;4956347;29;20180;-76
2022/01/13 05:18:18;;;;;;;48.58;23.67;;;0.80;99.90;;;;;;4956187;29;20177;-76
2022/01/13 05:20:27;;;;;;;51.28;21.38;;;0.70;99.90;;;;;;4947984;29;20239;-77
2022/01/13 05:22:53;;;;;;;59.15;23.90;;;0.70;99.90;;;;;;4955653;28;20205;-76
2022/01/13 05:25:20;;;;;;;55.97;23.70;;;0.60;99.90;;;;;;4956149;29;20599;-76
2022/01/13 05:27:46;;;;;;;64.80;24.70;;;0.50;99.90;;;;;;4955964;29;20684;-76
2022/01/13 05:30:13;;;;;;;76.40;26.10;;;0.50;99.90;;;;;;4954593;29;20221;-76
2022/01/13 05:32:38;;;;;;;68.13;27.15;;;0.50;99.90;;;;;;4955295;28;20529;-76
2022/01/13 05:35:04;;;;;;;63.87;24.17;;;0.60;99.90;;;;;;4956022;29;20348;-76
2022/01/13 05:37:30;;;;;;;61.25;22.80;;;0.60;99.90;;;;;;4954747;29;20642;-76
2022/01/13 05:39:56;;;;;;;55.63;21.83;;;0.70;99.90;;;;;;4956031;29;20193;-76
2022/01/13 05:42:22;;;;;;;59.53;25.42;;;0.70;99.90;;;;;;4955466;28;20215;-76
2022/01/13 05:44:48;;;;;;;69.83;27.30;;;0.80;99.90;;;;;;4955666;29;20619;-76
2022/01/13 05:47:14;;;;;;;65.87;25.30;;;0.80;99.90;;;;;;4955688;29;20425;-76
2022/01/13 05:49:42;;;;;;;56.83;23.80;;;0.80;99.90;;;;;;4954435;29;20234;-76
2022/01/13 05:52:12;;;;;;;62.00;24.00;;;0.80;99.90;;;;;;4955322;28;20531;-76
2022/01/13 05:54:38;;;;;;;56.28;24.35;;;0.80;99.90;;;;;;4955552;29;20271;-76
2022/01/13 05:57:05;;;;;;;64.20;22.88;;;0.80;99.90;;;;;;4955744;29;20181;-76
2022/01/13 05:59:31;;;;;;;61.00;24.85;;;0.90;99.90;;;;;;4954405;29;20199;-76
2022/01/13 06:01:57;;;;;;;60.75;23.83;;;0.90;99.90;;;;;;4954713;28;20210;-76
2022/01/13 06:04:23;;;;;;;58.38;24.55;;;0.90;99.90;;;;;;4955512;28;20534;-76
2022/01/13 06:06:49;;;;;;;67.53;24.70;;;0.90;99.90;;;;;;4955407;29;20183;-76
2022/01/13 06:09:14;;;;;;;58.53;24.03;;;0.90;99.90;;;;;;4955313;29;20262;-76
2022/01/13 06:11:44;;;;;;;52.00;25.77;;;0.90;99.90;;;;;;4954877;28;20207;-76
2022/01/13 06:14:10;;;;;;;59.22;25.27;;;0.90;99.90;;;;;;4955391;29;20172;-76
2022/01/13 06:16:36;;;;;;;53.50;22.80;;;0.90;99.90;;;;;;4954050;29;20263;-76
2022/01/13 06:19:02;;;;;;;70.00;26.17;;;0.90;99.90;;;;;;4955052;29;20510;-76
2022/01/13 06:21:28;;;;;;;52.60;23.20;;;0.90;99.90;;;;;;4954949;28;20582;-76
2022/01/13 06:23:53;;;;;;;58.53;24.90;;;0.80;99.90;;;;;;4955166;29;20197;-76
2022/01/13 06:26:19;;;;;;;65.60;25.87;;;0.70;99.90;;;;;;4955146;29;20812;-76
2022/01/13 06:28:45;;;;;;;56.65;24.25;;;0.70;99.90;;;;;;4954991;29;20191;-76
2022/01/13 06:31:10;;;;;;;64.17;25.50;;;0.70;99.90;;;;;;4954564;28;20605;-76
2022/01/13 06:33:36;;;;;;;60.13;25.30;;;0.70;99.90;;;;;;4954990;29;20231;-76
2022/01/13 06:36:04;;;;;;;57.50;21.87;;;0.70;99.90;;;;;;4955143;29;20189;-76
2022/01/13 06:38:30;;;;;;;52.97;22.75;;;0.80;99.90;;;;;;4955086;29;20168;-76
2022/01/13 06:40:56;;;;;;;55.50;23.85;;;0.70;99.90;;;;;;4954653;28;20279;-76
2022/01/13 06:43:22;;;;;;;54.60;23.80;;;0.70;99.90;;;;;;4954954;29;20260;-76
2022/01/13 06:45:47;;;;;;;47.70;23.43;;;0.60;99.90;;;;;;4953823;29;20248;-76
2022/01/13 06:48:13;;;;;;;54.50;23.33;;;0.60;99.90;;;;;;4953878;29;20225;-76
2022/01/13 06:50:39;;;;;;;50.15;21.55;;;0.60;99.90;;;;;;4953602;29;20668;-76
2022/01/13 06:53:04;;;;;;;55.57;21.53;;;0.60;99.90;;;;;;4954679;28;20204;-76
2022/01/13 06:55:30;;;;;;;55.77;23.67;;;0.70;99.90;;;;;;4954855;29;20185;-76
2022/01/13 06:57:56;;;;;;;53.03;24.20;;;0.80;99.90;;;;;;4954916;29;20288;-76
2022/01/13 07:00:23;;;;;;;54.00;22.63;;;0.80;99.90;;;;;;4954915;29;20193;-76
2022/01/13 07:02:49;;;;;;;58.78;24.95;;;0.70;99.90;;;;;;4954536;28;20722;-76
2022/01/13 07:05:14;;;;;;;58.67;21.77;;;0.70;99.90;;;;;;4954819;29;20316;-76
2022/01/13 07:07:40;;;;;;;58.13;23.40;;;0.70;99.90;;;;;;4954649;29;20586;-76
2022/01/13 07:10:08;;;;;;;59.47;22.67;;;0.70;99.90;;;;;;4954981;29;20259;-76
2022/01/13 07:12:34;;;;;;;51.97;23.00;;;0.70;99.90;;;;;;4954203;28;20209;-76
2022/01/13 07:14:59;;;;;;;72.90;22.80;;;0.70;99.90;;;;;;4957207;29;20803;-76
2022/01/13 07:17:25;;;;;;;58.67;21.07;;;0.60;99.90;;;;;;4958403;29;20196;-76
2022/01/13 07:19:51;;;;;;;63.53;21.13;;;0.50;99.90;;;;;;4958423;29;20211;-76
2022/01/13 07:22:18;;;;;;;49.87;21.87;;;0.50;99.90;;;;;;4958122;28;20441;-76
2022/01/13 07:24:44;;;;;;;59.17;23.23;;;0.60;99.90;;;;;;4958372;29;20447;-76
2022/01/13 07:27:10;;;;;;;78.50;24.27;;;0.50;99.90;;;;;;4958427;29;20185;-76
2022/01/13 07:29:35;;;;;;;64.60;24.67;;;0.50;99.90;;;;;;4972855;28;20564;-76
2022/01/13 07:32:01;;;;;;;67.67;24.83;;;0.60;99.90;;;;;;4957916;28;20206;-76
2022/01/13 07:34:28;;;;;;;58.40;23.20;;;0.50;99.90;;;;;;4958253;29;20291;-76
2022/01/13 07:36:54;;;;;;;58.00;25.67;;;0.50;99.90;;;;;;4958146;29;20177;-76
2022/01/13 07:39:19;;;;;;;65.80;24.13;;;0.60;99.90;;;;;;4958117;29;20274;-76
2022/01/13 07:41:45;;;;;;;63.23;23.33;;;0.50;99.90;;;;;;4956572;28;20205;-76
2022/01/13 07:44:10;;;;;;;68.57;24.70;;;0.50;99.90;;;;;;4958136;29;20194;-76
2022/01/13 07:46:36;;;;;;;85.90;24.10;;;0.50;99.90;;;;;;4958013;29;20453;-76
2022/01/13 07:49:02;;;;;;;79.63;25.90;;;0.60;99.90;;;;;;4957652;29;20675;-76
2022/01/13 07:51:29;;;;;;;50.93;23.10;;;0.60;99.90;;;;;;4957364;28;20621;-76
2022/01/13 07:53:56;;;;;;;58.08;22.50;;;0.60;99.90;;;;;;4957655;29;20424;-76
2022/01/13 07:56:22;;;;;;;73.18;23.92;;;0.70;99.90;;;;;;4956759;29;20186;-76
2022/01/13 07:58:47;;;;;;;62.50;21.60;;;0.70;99.90;;;;;;4957648;29;20655;-76
2022/01/13 08:01:13;;;;;;;58.33;21.73;;;0.70;99.90;;;;;;4956236;28;20950;-76
2022/01/13 08:03:39;;;;;;;83.63;24.98;;;0.70;99.90;;;;;;4957802;29;20643;-76
2022/01/13 08:06:05;;;;;;;79.63;22.33;;;0.60;99.90;;;;;;4957702;29;20184;-76
2022/01/13 08:08:32;;;;;;;60.78;22.77;;;0.60;99.90;;;;;;4957572;29;20554;-76
2022/01/13 08:10:58;;;;;;;68.40;25.27;;;0.60;99.90;;;;;;4957097;28;20213;-76
2022/01/13 08:13:24;;;;;;;55.25;25.00;;;0.60;99.90;;;;;;4957392;29;20222;-76
2022/01/13 08:15:52;;;;;;;51.93;21.30;;;0.60;99.90;;;;;;4957332;29;20219;-76
2022/01/13 08:21:02;;;;;;;63.70;23.48;;;0.60;99.90;;;;;;4957004;28;20215;-76
2022/01/13 08:23:28;;;;;;;54.03;24.27;;;0.70;99.90;;;;;;4972071;28;20191;-76
2022/01/13 08:25:53;;;;;;;56.40;22.93;;;0.70;99.90;;;;;;4956772;28;20422;-76
2022/01/13 08:28:20;;;;;;;57.33;24.53;;;0.70;99.90;;;;;;4957088;29;20195;-76
2022/01/13 08:30:46;;;;;;;57.15;24.83;;;0.70;99.90;;;;;;4956634;29;20624;-76
2022/01/13 08:33:11;;;;;;;50.00;21.27;;;0.70;99.90;;;;;;4956962;28;20198;-76
2022/01/13 08:35:43;;;;;;;48.07;22.67;;;0.70;99.90;;;;;;4955753;29;20536;-76
2022/01/13 08:38:16;;;;;;;50.55;21.95;;;0.80;99.90;;;;;;4956860;29;20592;-76
2022/01/13 08:40:49;;;;;;;48.58;22.08;;;0.80;99.90;;;;;;4956927;29;20584;-76
2022/01/13 08:43:16;;;;;;;54.58;23.23;;;0.80;99.90;;;;;;4956975;29;20199;-76
2022/01/13 08:45:42;;;;;;;58.30;22.67;;;0.80;99.90;;;;;;4955609;29;20190;-76
2022/01/13 08:48:07;;;;;;;61.60;25.07;;;0.90;99.90;;;;;;4956611;29;20182;-76
2022/01/13 08:50:34;;;;;;;50.27;21.60;;;0.90;99.90;;;;;;4956801;29;20300;-76
2022/01/13 08:52:59;;;;;;;42.97;19.92;;;0.80;99.90;;;;;;4971240;28;20443;-76
2022/01/13 08:55:25;;;;;;;51.60;21.60;;;0.80;99.90;;;;;;4956846;29;20234;-76
2022/01/13 08:57:52;;;;;;;48.20;20.53;;;0.80;99.90;;;;;;4956861;29;20178;-76
2022/01/13 09:00:17;;;;;;;41.88;18.85;;;0.80;99.90;;;;;;4956459;29;20202;-76
2022/01/13 09:02:44;;;;;;;39.97;19.37;;;0.80;99.90;;;;;;4956280;28;20203;-76
2022/01/13 09:05:15;;;;;;;48.25;19.83;;;0.80;99.90;;;;;;4956506;29;20531;-76
2022/01/13 09:07:41;;;;;;;47.60;19.92;;;0.90;99.90;;;;;;4956459;29;20642;-76
2022/01/13 09:10:08;;;;;;;50.65;21.48;;;0.80;99.90;;;;;;4956261;29;20215;-76
2022/01/13 09:12:34;;;;;;;46.53;20.00;;;0.80;99.90;;;;;;4955550;28;20219;-76
2022/01/13 09:15:15;;;;;;;50.28;22.70;;;0.90;99.90;;;;;;4956428;29;20181;-76
2022/01/13 09:17:42;;;;;;;58.08;22.48;;;0.90;99.90;;;;;;4956337;29;20663;-76
2022/01/13 09:20:10;;;;;;;50.35;22.15;;;0.90;99.90;;;;;;4956262;29;20193;-76
2022/01/13 09:22:36;;;;;;;47.92;23.10;;;1.00;99.90;;;;;;4955740;28;20250;-76
2022/01/13 09:25:02;;;;;;;53.40;22.63;;;1.10;99.90;;;;;;4954952;29;20189;-76
2022/01/13 09:27:28;;;;;;;54.17;23.35;;;1.20;99.90;;;;;;4956205;29;20196;-75
2022/01/13 09:29:53;;;;;;;45.40;20.40;;;1.20;99.90;;;;;;4955913;29;20321;-76
2022/01/13 09:32:19;;;;;;;43.90;20.60;;;1.30;99.90;;;;;;4955437;28;20201;-76
2022/01/13 09:34:45;;;;;;;53.97;23.83;;;1.40;99.90;;;;;;4954637;29;20421;-76
2022/01/13 09:37:11;;;;;;;49.30;24.10;;;1.50;99.90;;;;;;4954033;28;20177;-75
2022/01/13 09:39:37;;;;;;;53.50;24.30;;;1.50;99.90;;;;;;4955916;29;20181;-76
2022/01/13 09:42:05;;;;;;;45.28;20.52;;;1.60;99.90;;;;;;4970208;28;20215;-76
2022/01/13 09:44:32;;;;;;;47.58;21.33;;;1.60;99.90;;;;;;4955684;29;20294;-76
2022/01/13 09:46:57;;;;;;;48.58;23.23;;;1.60;99.90;;;;;;4955878;29;20194;-76
2022/01/13 09:49:23;;;;;;;45.40;19.87;;;1.70;99.90;;;;;;4955746;29;20209;-76
2022/01/13 09:51:49;;;;;;;43.47;21.73;;;1.80;99.90;;;;;;4954248;28;20562;-76
2022/01/13 09:54:16;;;;;;;45.47;21.40;;;1.90;99.90;;;;;;4955585;29;20181;-76
2022/01/13 09:56:42;;;;;;;46.25;22.35;;;2.00;99.90;;;;;;4955445;29;20180;-76
2022/01/13 09:59:08;;;;;;;42.92;20.27;;;2.10;99.90;;;;;;4955578;29;20296;-76
2022/01/13 10:01:33;;;;;;;40.77;21.27;;;2.30;99.90;;;;;;4953863;28;20270;-76
2022/01/13 10:03:59;;;;;;;43.97;21.67;;;2.30;99.90;;;;;;4954481;29;20830;-76
2022/01/13 10:06:25;;;;;;;40.90;20.60;;;2.40;99.90;;;;;;4954259;29;20181;-76
2022/01/13 10:08:54;;;;;;;44.87;22.13;;;2.40;99.90;;;;;;4954001;29;20185;-76
2022/01/13 10:11:28;;;;;;;44.75;23.05;;;2.40;99.90;;;;;;4955174;28;20436;-76
2022/01/13 10:17:04;;;;;;;39.00;19.88;;;2.60;99.90;;;;;;4925192;29;20544;-76
2022/01/13 10:19:37;;;;;;;41.38;20.85;;;2.70;99.90;;;;;;4955337;29;20182;-75
2022/01/13 10:22:06;;;;;;;37.08;20.05;;;2.90;99.90;;;;;;4954855;28;20239;-76
2022/01/13 10:24:35;;;;;;;37.03;18.85;;;2.90;99.90;;;;;;4955130;29;20256;-76
2022/01/13 10:27:08;;;;;;;28.73;17.20;;;2.90;99.90;;;;;;4970017;28;20189;-76
2022/01/13 10:29:47;;;;;;;31.88;16.25;;;2.90;99.90;;;;;;4955129;29;20196;-76
2022/01/13 10:32:24;;;;;;;29.50;16.48;;;3.10;99.90;;;;;;4954781;28;20586;-76
2022/01/13 10:34:59;;;;;;;26.02;14.88;;;3.30;99.90;;;;;;4954924;29;20205;-76
2022/01/13 10:37:58;;;;;;;24.88;14.88;;;3.30;99.90;;;;;;4955085;29;20187;-76
2022/01/13 10:40:29;;;;;;;25.00;13.98;;;3.60;99.90;;;;;;4951254;28;20205;-76
2022/01/13 10:45:26;;;;;;;21.73;12.75;;;4.10;99.90;;;;;;4954933;29;20220;-76
2022/01/13 10:47:57;;;;;;;25.25;12.27;;;4.10;99.90;;;;;;4955685;28;20297;-76
2022/01/13 10:50:46;;;;;;;25.13;14.07;;;4.40;99.90;;;;;;4958871;29;20228;-76
2022/01/13 10:53:30;;;;;;;21.00;12.23;;;4.70;99.90;;;;;;4958656;28;20568;-76
2022/01/13 10:56:00;;;;;;;21.55;13.75;;;4.50;99.90;;;;;;4958908;29;20177;-76
2022/01/13 10:58:28;;;;;;;24.95;15.10;;;4.30;99.90;;;;;;4958998;29;20638;-76
2022/01/13 11:00:55;;;;;;;24.77;15.27;;;4.70;99.90;;;;;;4958371;28;20231;-76
2022/01/13 11:03:23;;;;;;;23.55;13.68;;;4.50;99.90;;;;;;4958741;28;20225;-76
2022/01/13 11:05:55;;;;;;;23.25;13.02;;;4.70;99.90;;;;;;4958773;29;20661;-76
2022/01/13 11:08:25;;;;;;;19.90;12.95;;;4.50;99.90;;;;;;4958734;29;20201;-76
2022/01/13 11:10:52;;;;;;;18.65;12.80;;;4.60;99.90;;;;;;4958158;28;20247;-76
2022/01/13 11:13:20;;;;;;;18.75;14.10;;;4.50;99.90;;;;;;4958315;29;20244;-76
2022/01/13 11:15:50;;;;;;;16.98;11.73;;;4.80;99.90;;;;;;4958436;29;20186;-76
2022/01/13 11:18:19;;;;;;;16.75;12.25;;;5.10;99.90;;;;;;4958407;29;20184;-76
2022/01/13 11:20:46;;;;;;;20.63;12.60;;;5.30;99.90;;;;;;4958099;29;20186;-76
2022/01/13 11:23:12;;;;;;;17.70;11.65;;;5.60;99.90;;;;;;4958250;28;20198;-76
2022/01/13 11:25:38;;;;;;;20.50;11.77;;;5.50;99.90;;;;;;4958262;29;20186;-76
2022/01/13 11:28:08;;;;;;;18.13;11.50;;;5.40;99.90;;;;;;4957023;29;20190;-76
2022/01/13 11:30:34;;;;;;;17.48;10.80;;;5.90;99.90;;;;;;4957845;29;20248;-76
2022/01/13 11:32:59;;;;;;;17.43;10.83;;;5.80;99.90;;;;;;4957883;28;20611;-76
2022/01/13 11:35:29;;;;;;;23.23;11.70;;;5.80;99.90;;;;;;4957981;29;20182;-76
2022/01/13 11:37:56;;;;;;;20.27;11.77;;;6.10;99.90;;;;;;4958128;29;20177;-76
2022/01/13 11:40:28;;;;;;;18.52;11.60;;;6.00;99.90;;;;;;4958000;29;20232;-77
2022/01/13 11:42:59;;;;;;;21.05;13.70;;;6.20;99.90;;;;;;4957496;28;20194;-76
2022/01/13 11:45:26;;;;;;;20.08;12.30;;;6.00;99.90;;;;;;4957842;29;20185;-76
2022/01/13 11:48:11;;;;;;;14.35;10.65;;;6.20;99.90;;;;;;4958118;29;20189;-76
2022/01/13 11:50:44;;;;;;;17.40;11.57;;;5.80;99.90;;;;;;4958005;29;20239;-76
2022/01/13 11:53:28;;;;;;;19.33;12.05;;;6.00;99.90;;;;;;4957943;28;20197;-76
2022/01/13 11:55:59;;;;;;;24.35;11.52;;;6.30;99.90;;;;;;4957828;28;20185;-76
2022/01/13 11:58:31;;;;;;;20.00;11.13;;;6.40;99.90;;;;;;4957859;29;20192;-76
2022/01/13 12:01:15;;;;;;;16.27;11.07;;;6.30;99.90;;;;;;4956783;28;20185;-76
2022/01/13 12:03:42;;;;;;;15.90;9.60;;;6.60;99.90;;;;;;4957549;29;20233;-76
2022/01/13 12:06:08;;;;;;;17.92;10.73;;;7.20;99.90;;;;;;4956536;29;20219;-76
2022/01/13 12:08:44;;;;;;;18.30;10.37;;;7.50;99.90;;;;;;4957566;29;20654;-77
2022/01/13 12:11:31;;;;;;;16.65;11.25;;;7.90;99.90;;;;;;4957052;28;20471;-77
2022/01/13 12:13:57;;;;;;;15.33;10.10;;;8.20;99.90;;;;;;4956920;29;20201;-76
2022/01/13 12:16:55;;;;;;;18.20;10.10;;;8.20;99.90;;;;;;4957409;29;20484;-76
2022/01/13 12:19:37;;;;;;;14.40;10.50;;;7.80;99.90;;;;;;4972250;28;20273;-76
2022/01/13 12:22:13;;;;;;;14.20;9.80;;;8.40;99.90;;;;;;4957023;28;20443;-76
2022/01/13 12:24:59;;;;;;;14.87;10.23;;;8.60;99.90;;;;;;4957276;29;20884;-76
2022/01/13 12:27:40;;;;;;;15.27;10.00;;;9.00;99.90;;;;;;4957159;29;20415;-76
2022/01/13 12:30:09;;;;;;;13.30;9.23;;;9.20;99.90;;;;;;4955896;29;20468;-77
2022/01/13 12:32:42;;;;;;;14.23;8.73;;;9.10;99.90;;;;;;4956678;28;20436;-76
2022/01/13 12:35:29;;;;;;;12.50;8.40;;;9.10;99.90;;;;;;4955825;29;20926;-77
2022/01/13 12:38:02;;;;;;;11.97;8.17;;;9.20;99.90;;;;;;4956877;29;20826;-76
2022/01/13 12:40:40;;;;;;;16.23;9.07;;;8.80;99.90;;;;;;4956900;28;20417;-76
2022/01/13 12:44:02;;;;;;;12.48;8.60;;;8.70;99.90;;;;;;4956410;28;20441;-76
2022/01/13 12:46:24;;;;;;;15.20;9.13;;;8.70;99.90;;;;;;4956627;28;20718;-76
2022/01/13 12:48:51;;;;;;;12.15;8.43;;;8.60;99.90;;;;;;4956875;29;20189;-76
2022/01/13 12:51:25;;;;;;;12.40;8.02;;;9.20;99.90;;;;;;4955150;29;20223;-76
2022/01/13 12:53:54;;;;;;;13.02;8.60;;;9.30;99.90;;;;;;4956789;29;20202;-76
2022/01/13 12:56:23;;;;;;;17.00;9.15;;;9.20;99.90;;;;;;4956663;29;20207;-77
2022/01/13 12:58:56;;;;;;;11.85;7.80;;;9.20;99.90;;;;;;4956783;29;20272;-76
2022/01/13 13:01:27;;;;;;;16.60;8.15;;;9.70;99.90;;;;;;4956307;28;20205;-77
2022/01/13 13:04:08;;;;;;;10.90;7.47;;;9.20;99.90;;;;;;4956800;29;20180;-76
2022/01/13 13:06:36;;;;;;;15.43;8.00;;;9.30;99.90;;;;;;4956589;29;20184;-76